createdAt,value
2023-02-23T00:02:22.092Z,3.10
2023-02-23T00:04:50.653Z,2.70
2023-02-23T00:07:20.474Z,2.60
2023-02-23T00:09:51.139Z,2.80
2023-02-23T00:12:21.023Z,3.90
2023-02-23T00:14:49.489Z,3.20
2023-02-23T00:17:17.945Z,4.10
2023-02-23T00:19:49.585Z,3.90
2023-02-23T00:22:18.629Z,3.50
2023-02-23T00:24:48.251Z,3.30
2023-02-23T00:27:21.395Z,3.20
2023-02-23T00:29:51.250Z,3.10
2023-02-23T00:32:20.257Z,3.90
2023-02-23T00:34:52.671Z,3.30
2023-02-23T00:37:23.275Z,3.50
2023-02-23T00:39:53.232Z,3.10
2023-02-23T00:42:21.691Z,3.10
2023-02-23T00:44:50.993Z,3.10
2023-02-23T00:47:19.517Z,3.20
2023-02-23T00:49:51.088Z,3.70
2023-02-23T00:52:20.905Z,4.00
2023-02-23T00:54:49.344Z,3.80
2023-02-23T00:57:17.721Z,3.30
2023-02-23T00:59:46.166Z,3.60
2023-02-23T01:02:14.909Z,3.30
2023-02-23T01:04:43.414Z,3.90
2023-02-23T01:07:13.291Z,3.80
2023-02-23T01:09:41.957Z,3.50
2023-02-23T01:12:12.595Z,3.40
2023-02-23T01:14:42.730Z,3.00
2023-02-23T01:17:12.549Z,3.10
2023-02-23T01:19:40.982Z,3.00
2023-02-23T01:22:09.501Z,3.50
2023-02-23T01:24:39.443Z,4.10
2023-02-23T01:27:07.894Z,3.30
2023-02-23T01:29:36.415Z,3.60
2023-02-23T01:32:05.734Z,3.40
2023-02-23T01:34:34.244Z,3.40
2023-02-23T01:37:04.120Z,3.30
2023-02-23T01:39:33.260Z,4.10
2023-02-23T01:42:01.823Z,4.50
2023-02-23T01:44:31.356Z,3.60
2023-02-23T01:46:59.729Z,3.80
2023-02-23T01:49:31.174Z,3.70
2023-02-23T01:52:13.642Z,3.60
2023-02-23T01:54:52.580Z,3.30
2023-02-23T01:57:27.370Z,4.30
2023-02-23T01:59:56.200Z,3.40
2023-02-23T02:02:34.031Z,3.50
2023-02-23T02:05:06.684Z,3.50
2023-02-23T02:07:36.184Z,3.00
2023-02-23T02:10:11.110Z,3.30
2023-02-23T02:12:41.618Z,3.00
2023-02-23T02:15:17.743Z,3.70
2023-02-23T02:18:23.614Z,3.70
2023-02-23T02:21:12.723Z,3.30
2023-02-23T02:24:10.538Z,3.20
2023-02-23T02:26:41.683Z,3.80
2023-02-23T02:29:29.093Z,3.60
2023-02-23T02:32:28.250Z,3.60
2023-02-23T02:35:02.382Z,3.50
2023-02-23T02:37:36.418Z,3.70
2023-02-23T02:40:16.644Z,4.20
2023-02-23T02:43:11.774Z,3.50
2023-02-23T02:45:51.317Z,4.20
2023-02-23T02:48:33.405Z,3.70
2023-02-23T02:51:18.005Z,3.60
2023-02-23T02:53:51.421Z,3.10
2023-02-23T02:56:25.546Z,4.10
2023-02-23T02:58:55.051Z,3.70
2023-02-23T03:01:42.305Z,3.70
2023-02-23T03:04:44.171Z,3.40
2023-02-23T03:07:50.361Z,3.20
2023-02-23T03:10:53.054Z,4.30
2023-02-23T03:14:03.664Z,4.00
2023-02-23T03:17:10.283Z,3.30
2023-02-23T03:20:14.134Z,3.80
2023-02-23T03:23:14.390Z,3.70
2023-02-23T03:26:20.581Z,4.00
2023-02-23T03:29:28.967Z,3.30
2023-02-23T03:32:29.869Z,3.60
2023-02-23T03:35:26.096Z,4.00
2023-02-23T03:38:21.186Z,3.00
2023-02-23T03:41:12.628Z,3.70
2023-02-23T03:44:11.522Z,3.70
2023-02-23T03:47:01.771Z,3.50
2023-02-23T03:49:53.510Z,3.70
2023-02-23T03:52:48.490Z,4.00
2023-02-23T03:55:40.528Z,3.50
2023-02-23T03:58:34.683Z,3.70
2023-02-23T04:01:26.194Z,3.80
2023-02-23T04:04:16.920Z,2.90
2023-02-23T04:07:06.266Z,4.20
2023-02-23T04:09:53.934Z,4.00
2023-02-23T04:12:50.043Z,4.40
2023-02-23T04:15:24.526Z,3.80
2023-02-23T04:17:53.993Z,3.60
2023-02-23T04:20:22.784Z,4.30
2023-02-23T04:22:51.251Z,4.00
2023-02-23T04:25:23.105Z,4.10
2023-02-23T04:27:51.700Z,4.10
2023-02-23T04:30:20.835Z,3.90
2023-02-23T04:32:49.334Z,4.10
2023-02-23T04:35:18.221Z,3.60
2023-02-23T04:37:47.044Z,3.50
2023-02-23T04:40:15.618Z,3.20
2023-02-23T04:42:44.137Z,4.20
2023-02-23T04:45:12.657Z,3.70
2023-02-23T04:47:41.734Z,4.50
2023-02-23T04:50:11.551Z,3.80
2023-02-23T04:52:40.100Z,3.40
2023-02-23T04:55:13.196Z,3.60
2023-02-23T04:57:41.652Z,3.60
2023-02-23T05:00:11.311Z,4.30
2023-02-23T05:02:40.672Z,3.80
2023-02-23T05:05:10.024Z,3.70
2023-02-23T05:07:38.892Z,4.00
2023-02-23T05:10:07.905Z,3.60
2023-02-23T05:12:36.635Z,3.50
2023-02-23T05:15:05.860Z,3.70
2023-02-23T05:17:34.312Z,4.00
2023-02-23T05:20:02.758Z,3.50
2023-02-23T05:22:31.387Z,4.00
2023-02-23T05:24:59.823Z,4.40
2023-02-23T05:27:28.279Z,4.70
2023-02-23T05:29:56.820Z,4.30
2023-02-23T05:32:25.415Z,3.80
2023-02-23T05:34:53.983Z,4.30
2023-02-23T05:37:22.455Z,3.30
2023-02-23T05:39:50.949Z,4.20
2023-02-23T05:42:19.791Z,4.00
2023-02-23T05:44:48.784Z,4.80
2023-02-23T05:47:17.396Z,6.80
2023-02-23T05:49:46.549Z,5.90
2023-02-23T05:52:15.010Z,5.50
2023-02-23T05:54:43.540Z,5.70
2023-02-23T05:57:12.053Z,5.70
2023-02-23T05:59:40.679Z,6.10
2023-02-23T06:02:09.126Z,5.90
2023-02-23T06:04:37.565Z,5.80
2023-02-23T06:07:06.065Z,5.80
2023-02-23T06:09:34.550Z,5.20
2023-02-23T06:12:03.024Z,5.20
2023-02-23T06:14:32.645Z,4.70
2023-02-23T06:17:01.826Z,5.20
2023-02-23T06:19:31.996Z,5.40
2023-02-23T06:22:00.564Z,5.60
2023-02-23T06:24:29.177Z,5.80
2023-02-23T06:26:57.670Z,5.60
2023-02-23T06:29:26.351Z,6.20
2023-02-23T06:31:54.838Z,4.90
2023-02-23T06:34:23.271Z,4.60
2023-02-23T06:36:51.772Z,4.90
2023-02-23T06:39:20.323Z,4.10
2023-02-23T06:41:48.823Z,5.00
2023-02-23T06:44:17.285Z,5.00
2023-02-23T06:46:45.696Z,5.00
2023-02-23T06:49:16.501Z,4.00
2023-02-23T06:51:45.180Z,4.10
2023-02-23T06:54:13.740Z,4.20
2023-02-23T06:56:42.126Z,4.40
2023-02-23T06:59:10.631Z,4.20
2023-02-23T07:01:39.148Z,4.90
2023-02-23T07:04:07.686Z,5.00
2023-02-23T07:06:36.215Z,4.10
2023-02-23T07:09:07.235Z,3.80
2023-02-23T07:11:35.627Z,4.60
2023-02-23T07:14:04.107Z,4.50
2023-02-23T07:16:32.703Z,4.50
2023-02-23T07:19:01.229Z,4.70
2023-02-23T07:21:32.280Z,5.60
2023-02-23T07:24:03.563Z,4.90
2023-02-23T07:26:36.223Z,4.50
2023-02-23T07:29:04.737Z,4.60
2023-02-23T07:31:33.206Z,4.90
2023-02-23T07:34:01.733Z,5.00
2023-02-23T07:36:30.116Z,5.40
2023-02-23T07:38:58.657Z,4.90
2023-02-23T07:41:27.208Z,4.90
2023-02-23T07:43:55.810Z,5.00
2023-02-23T07:46:24.307Z,4.50
2023-02-23T07:48:54.356Z,4.80
2023-02-23T07:51:22.814Z,4.60
2023-02-23T07:53:51.312Z,5.20
2023-02-23T07:56:19.886Z,5.40
2023-02-23T07:58:48.444Z,4.90
2023-02-23T08:01:17.146Z,4.30
2023-02-23T08:03:49.876Z,5.30
2023-02-23T08:06:19.780Z,4.60
2023-02-23T08:08:48.315Z,5.90
2023-02-23T08:11:17.218Z,6.30
2023-02-23T08:13:45.962Z,4.50
2023-02-23T08:16:15.139Z,6.00
2023-02-23T08:18:43.633Z,4.90
2023-02-23T08:21:12.167Z,4.70
2023-02-23T08:23:40.684Z,4.50
2023-02-23T08:26:09.139Z,5.10
2023-02-23T08:28:38.042Z,5.00
2023-02-23T08:31:10.422Z,5.80
2023-02-23T08:33:39.548Z,5.00
2023-02-23T08:36:08.637Z,5.30
2023-02-23T08:38:37.081Z,5.10
2023-02-23T08:41:06.879Z,4.90
2023-02-23T08:43:35.346Z,5.10
2023-02-23T08:46:03.868Z,4.70
2023-02-23T08:48:33.202Z,5.10
2023-02-23T08:51:02.053Z,4.40
2023-02-23T08:53:31.006Z,5.50
2023-02-23T08:56:02.024Z,5.30
2023-02-23T08:58:31.397Z,5.30
2023-02-23T09:01:00.989Z,4.30
2023-02-23T09:03:30.942Z,4.90
2023-02-23T09:06:10.761Z,5.10
2023-02-23T09:08:39.386Z,5.30
2023-02-23T09:11:07.937Z,4.90
2023-02-23T09:13:36.366Z,4.50
2023-02-23T09:16:05.621Z,5.00
2023-02-23T09:18:35.003Z,4.80
2023-02-23T09:21:08.855Z,5.40
2023-02-23T09:23:37.844Z,5.40
2023-02-23T09:26:08.720Z,5.30
2023-02-23T09:28:38.932Z,5.30
2023-02-23T09:31:21.264Z,5.20
2023-02-23T09:33:51.795Z,5.90
2023-02-23T09:36:25.886Z,5.00
2023-02-23T09:38:57.392Z,5.50
2023-02-23T09:41:25.859Z,4.90
2023-02-23T09:44:26.695Z,5.00
2023-02-23T09:47:22.917Z,5.90
2023-02-23T09:49:52.453Z,5.70
2023-02-23T09:52:28.569Z,5.70
2023-02-23T09:54:58.516Z,5.20
2023-02-23T09:57:40.187Z,5.50
2023-02-23T10:00:28.624Z,4.80
2023-02-23T10:03:14.525Z,5.50
2023-02-23T10:05:48.517Z,5.20
2023-02-23T10:08:27.850Z,5.20
2023-02-23T10:11:03.041Z,5.10
2023-02-23T10:13:40.294Z,5.80
2023-02-23T10:16:12.774Z,5.60
2023-02-23T10:18:52.172Z,5.70
2023-02-23T10:21:43.161Z,5.80
2023-02-23T10:24:16.719Z,6.40
2023-02-23T10:26:54.564Z,5.60
2023-02-23T10:29:42.929Z,5.30
2023-02-23T10:32:27.784Z,5.70
2023-02-23T10:34:57.037Z,5.40
2023-02-23T10:37:26.421Z,5.90
2023-02-23T10:39:54.878Z,5.70
2023-02-23T10:42:32.219Z,6.00
2023-02-23T10:45:00.937Z,5.70
2023-02-23T10:47:35.851Z,6.00
2023-02-23T10:50:06.844Z,6.00
2023-02-23T10:52:53.042Z,6.10
2023-02-23T10:55:27.408Z,5.80
2023-02-23T10:58:17.171Z,5.90
2023-02-23T11:00:55.454Z,5.90
2023-02-23T11:04:05.346Z,5.20
2023-02-23T11:06:40.023Z,5.30
2023-02-23T11:09:45.081Z,5.70
2023-02-23T11:12:22.570Z,5.40
2023-02-23T11:14:53.895Z,5.50
2023-02-23T11:17:33.945Z,5.10
2023-02-23T11:20:23.411Z,5.30
2023-02-23T11:22:52.594Z,5.80
2023-02-23T11:25:29.481Z,5.90
2023-02-23T11:27:59.306Z,5.80
2023-02-23T11:30:37.800Z,5.90
2023-02-23T11:33:11.593Z,5.70
2023-02-23T11:35:40.235Z,5.70
2023-02-23T11:38:22.412Z,5.00
2023-02-23T11:41:22.159Z,5.90
2023-02-23T11:43:56.931Z,5.80
2023-02-23T11:46:28.026Z,6.30
2023-02-23T11:49:07.771Z,5.40
2023-02-23T11:51:46.652Z,5.90
2023-02-23T11:54:30.255Z,5.70
2023-02-23T11:57:02.955Z,5.20
2023-02-23T11:59:42.163Z,6.00
2023-02-23T12:02:30.509Z,5.60
2023-02-23T12:05:10.401Z,5.60
2023-02-23T12:07:54.791Z,5.80
2023-02-23T12:10:28.565Z,5.90
2023-02-23T12:13:08.720Z,5.70
2023-02-23T12:15:59.041Z,5.30
2023-02-23T12:18:39.690Z,5.20
2023-02-23T12:21:14.715Z,6.30
2023-02-23T12:23:50.807Z,5.80
2023-02-23T12:26:23.645Z,5.80
2023-02-23T12:28:59.839Z,5.60
2023-02-23T12:31:34.136Z,6.10
2023-02-23T12:34:22.165Z,6.00
2023-02-23T12:37:07.794Z,5.80
2023-02-23T12:39:41.943Z,5.50
2023-02-23T12:42:49.042Z,5.50
2023-02-23T12:45:37.671Z,6.30
2023-02-23T12:48:25.168Z,6.40
2023-02-23T12:50:56.852Z,6.30
2023-02-23T12:53:34.352Z,5.90
2023-02-23T12:56:21.520Z,5.90
2023-02-23T12:59:08.901Z,6.20
2023-02-23T13:01:53.412Z,6.10
2023-02-23T13:04:22.904Z,6.00
2023-02-23T13:07:06.066Z,6.00
2023-02-23T13:09:53.346Z,5.90
2023-02-23T13:12:41.604Z,5.90
2023-02-23T13:15:20.049Z,6.40
2023-02-23T13:17:51.530Z,5.70
2023-02-23T13:20:26.363Z,6.30
2023-02-23T13:23:01.546Z,5.30
2023-02-23T13:25:54.470Z,6.40
2023-02-23T13:28:56.566Z,6.20
2023-02-23T13:31:33.891Z,5.80
2023-02-23T13:34:05.380Z,6.00
2023-02-23T13:36:36.790Z,4.70
2023-02-23T13:39:18.501Z,5.30
2023-02-23T13:41:53.844Z,5.60
2023-02-23T13:44:53.051Z,6.10
2023-02-23T13:47:45.699Z,5.90
2023-02-23T13:50:28.222Z,6.10
2023-02-23T13:53:02.044Z,6.00
2023-02-23T13:55:48.795Z,6.00
2023-02-23T13:58:29.834Z,5.70
2023-02-23T14:01:27.875Z,5.40
2023-02-23T14:04:00.828Z,5.80
2023-02-23T14:06:34.391Z,6.00
2023-02-23T14:09:24.119Z,5.10
2023-02-23T14:12:02.598Z,5.90
2023-02-23T14:14:31.107Z,5.40
2023-02-23T14:17:14.760Z,4.30
2023-02-23T14:20:01.791Z,5.20
2023-02-23T14:22:30.356Z,5.00
2023-02-23T14:25:34.231Z,5.00
2023-02-23T14:28:23.257Z,5.00
2023-02-23T14:31:11.275Z,5.30
2023-02-23T14:33:43.029Z,5.10
2023-02-23T14:36:23.992Z,5.20
2023-02-23T14:39:03.591Z,4.80
2023-02-23T14:41:56.194Z,5.60
2023-02-23T14:44:51.716Z,5.50
2023-02-23T14:47:26.727Z,5.20
2023-02-23T14:49:59.872Z,5.10
2023-02-23T14:52:34.660Z,5.60
2023-02-23T14:55:22.367Z,5.60
2023-02-23T14:57:52.773Z,5.20
2023-02-23T15:00:25.897Z,5.60
2023-02-23T15:03:02.503Z,5.50
2023-02-23T15:05:34.518Z,6.50
2023-02-23T15:08:11.123Z,5.90
2023-02-23T15:10:45.893Z,4.60
2023-02-23T15:13:34.053Z,7.00
2023-02-23T15:16:08.421Z,6.20
2023-02-23T15:18:40.765Z,5.80
2023-02-23T15:21:16.608Z,7.00
2023-02-23T15:23:48.581Z,7.30
2023-02-23T15:26:38.184Z,6.00
2023-02-23T15:29:25.175Z,5.10
2023-02-23T15:31:56.322Z,5.50
2023-02-23T15:34:27.792Z,5.50
2023-02-23T15:37:05.764Z,7.00
2023-02-23T15:39:41.446Z,6.40
2023-02-23T15:42:16.017Z,6.20
2023-02-23T15:44:45.579Z,5.70
2023-02-23T15:47:23.406Z,6.20
2023-02-23T15:49:52.066Z,5.90
2023-02-23T15:52:25.769Z,6.20
2023-02-23T15:55:07.228Z,5.60
2023-02-23T15:57:47.708Z,6.10
2023-02-23T16:00:32.748Z,6.40
2023-02-23T16:03:03.859Z,7.20
2023-02-23T16:05:46.582Z,7.10
2023-02-23T16:08:23.459Z,7.10
2023-02-23T16:11:04.563Z,6.80
2023-02-23T16:13:33.228Z,6.80
2023-02-23T16:16:01.888Z,6.60
2023-02-23T16:18:39.921Z,7.40
2023-02-23T16:21:17.131Z,7.80
2023-02-23T16:23:49.462Z,8.80
2023-02-23T16:26:25.387Z,9.00
2023-02-23T16:29:00.423Z,9.50
2023-02-23T16:31:58.444Z,9.10
2023-02-23T16:34:31.828Z,9.00
2023-02-23T16:37:04.224Z,8.90
2023-02-23T16:39:34.574Z,8.40
2023-02-23T16:42:03.119Z,12.70
2023-02-23T16:44:42.994Z,8.90
2023-02-23T16:47:20.907Z,11.50
2023-02-23T16:49:50.993Z,11.10
2023-02-23T16:52:25.593Z,13.60
2023-02-23T16:54:56.007Z,12.70
2023-02-23T16:57:28.686Z,12.90
2023-02-23T16:59:57.855Z,16.30
2023-02-23T17:02:26.476Z,45.80
2023-02-23T17:04:59.063Z,43.70
2023-02-23T17:07:27.753Z,74.20
2023-02-23T17:09:56.310Z,24.80
2023-02-23T17:12:24.761Z,25.50
2023-02-23T17:14:53.326Z,18.10
2023-02-23T17:17:21.948Z,15.70
2023-02-23T17:19:50.379Z,16.40
2023-02-23T17:22:18.943Z,16.00
2023-02-23T17:24:47.436Z,15.70
2023-02-23T17:27:15.999Z,15.30
2023-02-23T17:29:44.805Z,18.40
2023-02-23T17:32:13.286Z,17.30
2023-02-23T17:34:42.307Z,17.10
2023-02-23T17:37:10.751Z,13.50
2023-02-23T17:39:41.326Z,15.00
2023-02-23T17:42:10.007Z,16.20
2023-02-23T17:44:38.471Z,16.90
2023-02-23T17:47:06.981Z,17.50
2023-02-23T17:49:35.722Z,19.00
2023-02-23T17:52:04.315Z,21.40
2023-02-23T17:54:32.777Z,18.90
2023-02-23T17:57:01.284Z,18.80
2023-02-23T17:59:29.775Z,15.50
2023-02-23T18:01:58.357Z,14.20
2023-02-23T18:04:26.796Z,13.00
2023-02-23T18:06:57.512Z,11.70
2023-02-23T18:12:22.136Z,9.30
2023-02-23T18:14:50.712Z,9.30
2023-02-23T18:17:19.154Z,8.40
2023-02-23T18:19:48.091Z,9.40
2023-02-23T18:22:16.778Z,9.50
2023-02-23T18:24:45.324Z,9.30
2023-02-23T18:27:13.780Z,8.50
2023-02-23T18:29:42.248Z,9.20
2023-02-23T18:32:12.009Z,10.30
2023-02-23T18:34:40.559Z,9.40
2023-02-23T18:37:10.366Z,10.30
2023-02-23T18:39:38.838Z,9.90
2023-02-23T18:42:07.327Z,10.30
2023-02-23T18:44:35.903Z,9.10
2023-02-23T18:47:04.457Z,8.50
2023-02-23T18:49:38.354Z,8.20
2023-02-23T18:52:37.205Z,7.50
2023-02-23T18:55:17.941Z,8.50
2023-02-23T18:57:46.438Z,9.30
2023-02-23T19:00:17.553Z,9.20
2023-02-23T19:02:46.809Z,7.50
2023-02-23T19:05:20.158Z,8.40
2023-02-23T19:07:49.572Z,8.50
2023-02-23T19:10:18.210Z,10.40
2023-02-23T19:12:46.728Z,10.20
2023-02-23T19:15:15.175Z,10.60
2023-02-23T19:17:44.637Z,10.80
2023-02-23T19:20:14.507Z,11.50
2023-02-23T19:22:46.177Z,9.70
2023-02-23T19:28:57.076Z,9.50
2023-02-23T19:31:56.274Z,7.50
2023-02-23T19:34:24.906Z,8.50
2023-02-23T19:36:53.330Z,8.60
2023-02-23T19:39:21.777Z,8.20
2023-02-23T19:41:50.258Z,10.20
2023-02-23T19:44:18.852Z,8.50
2023-02-23T19:46:47.280Z,9.90
2023-02-23T19:49:17.100Z,9.70
2023-02-23T19:51:45.606Z,8.80
2023-02-23T19:54:14.054Z,8.70
2023-02-23T19:56:43.708Z,9.30
2023-02-23T19:59:12.504Z,10.20
2023-02-23T20:01:40.972Z,10.40
2023-02-23T20:04:11.045Z,10.50
2023-02-23T20:06:45.273Z,9.30
2023-02-23T20:12:13.102Z,8.70
2023-02-23T20:14:44.893Z,9.70
2023-02-23T20:17:14.618Z,10.70
2023-02-23T20:23:08.207Z,11.70
2023-02-23T20:25:37.057Z,12.60
2023-02-23T20:28:08.247Z,11.40
2023-02-23T20:30:36.869Z,9.50
2023-02-23T20:33:06.024Z,9.50
2023-02-23T20:35:35.037Z,9.20
2023-02-23T20:38:04.933Z,8.60
2023-02-23T20:40:34.262Z,8.20
2023-02-23T20:43:02.701Z,9.40
2023-02-23T20:45:31.333Z,10.00
2023-02-23T20:47:59.782Z,10.10
2023-02-23T20:50:34.095Z,8.10
2023-02-23T20:53:05.294Z,11.30
2023-02-23T20:55:33.786Z,11.00
2023-02-23T20:58:02.280Z,10.60
2023-02-23T21:00:34.050Z,11.10
2023-02-23T21:03:03.311Z,11.50
2023-02-23T21:05:40.630Z,10.40
2023-02-23T21:08:10.034Z,10.40
2023-02-23T21:10:40.155Z,10.70
2023-02-23T21:13:12.342Z,11.70
2023-02-23T21:15:43.551Z,11.80
2023-02-23T21:18:12.429Z,10.30
2023-02-23T21:20:41.217Z,11.30
2023-02-23T21:23:09.721Z,12.10
2023-02-23T21:25:38.827Z,14.50
2023-02-23T21:28:07.514Z,12.10
2023-02-23T21:30:35.949Z,12.20
2023-02-23T21:33:04.579Z,12.30
2023-02-23T21:35:35.462Z,11.80
2023-02-23T21:38:04.563Z,15.00
2023-02-23T21:40:33.044Z,12.80
2023-02-23T21:43:01.576Z,12.20
2023-02-23T21:45:30.003Z,11.80
2023-02-23T21:47:58.432Z,12.90
2023-02-23T21:50:27.073Z,11.10
2023-02-23T21:52:58.083Z,11.90
2023-02-23T21:55:26.534Z,11.00
2023-02-23T21:57:55.697Z,12.50
2023-02-23T22:00:24.944Z,12.60
2023-02-23T22:02:53.422Z,12.50
2023-02-23T22:05:22.004Z,11.30
2023-02-23T22:07:52.187Z,13.60
2023-02-23T22:10:24.176Z,11.80
2023-02-23T22:12:57.031Z,11.80
2023-02-23T22:15:29.005Z,10.90
2023-02-23T22:17:57.454Z,12.50
2023-02-23T22:20:26.504Z,12.20
2023-02-23T22:22:55.036Z,11.10
2023-02-23T22:25:23.696Z,10.60
2023-02-23T22:27:52.125Z,12.00
2023-02-23T22:30:23.186Z,11.50
2023-02-23T22:32:51.896Z,12.20
2023-02-23T22:35:20.453Z,10.80
2023-02-23T22:37:48.850Z,10.20
2023-02-23T22:40:17.625Z,11.60
2023-02-23T22:42:48.688Z,11.50
2023-02-23T22:45:17.979Z,11.70
2023-02-23T22:47:46.523Z,10.20
2023-02-23T22:50:18.355Z,11.60
2023-02-23T22:52:47.298Z,10.60
2023-02-23T22:55:16.044Z,10.50
2023-02-23T22:57:46.210Z,11.50
2023-02-23T23:00:18.929Z,10.80
2023-02-23T23:02:48.457Z,11.40
2023-02-23T23:05:18.199Z,11.30
2023-02-23T23:07:49.394Z,12.00
2023-02-23T23:10:18.246Z,11.60
2023-02-23T23:12:47.120Z,10.50
2023-02-23T23:15:17.529Z,10.70
2023-02-23T23:17:50.341Z,11.80
2023-02-23T23:20:26.056Z,11.60
2023-02-23T23:22:57.585Z,10.20
2023-02-23T23:25:28.160Z,10.00
2023-02-23T23:27:58.081Z,10.50
2023-02-23T23:30:29.689Z,11.10
2023-02-23T23:32:58.282Z,9.30
2023-02-23T23:35:26.880Z,10.80
2023-02-23T23:37:55.437Z,10.60
2023-02-23T23:40:24.846Z,11.10
2023-02-23T23:42:55.408Z,10.70
2023-02-23T23:45:27.676Z,9.70
2023-02-23T23:47:56.149Z,10.60
2023-02-23T23:50:27.525Z,9.70
2023-02-23T23:52:57.329Z,9.80
2023-02-23T23:55:31.596Z,9.60
2023-02-23T23:58:00.644Z,9.80
